createdAt,value
2017-04-17T00:00:02.923Z,4.44
2017-04-17T00:15:03.079Z,4.41
2017-04-17T00:30:02.836Z,4.43
2017-04-17T00:45:02.299Z,4.19
2017-04-17T01:00:02.941Z,4.01
2017-04-17T01:15:02.826Z,3.89
2017-04-17T01:30:02.383Z,3.82
2017-04-17T01:45:02.578Z,3.79
2017-04-17T02:00:02.780Z,3.84
2017-04-17T02:15:03.037Z,3.99
2017-04-17T02:30:02.196Z,4.18
2017-04-17T02:45:03.307Z,4.21
2017-04-17T03:00:02.154Z,4.31
2017-04-17T03:15:02.197Z,4.35
2017-04-17T03:30:02.491Z,4.43
2017-04-17T03:45:03.371Z,4.36
2017-04-17T04:00:02.452Z,4.34
2017-04-17T04:15:02.596Z,4.33
2017-04-17T04:30:03.022Z,4.33
2017-04-17T04:45:03.032Z,4.35
2017-04-17T05:00:02.741Z,4.39
2017-04-17T05:15:02.365Z,4.49
2017-04-17T05:30:02.387Z,4.56
2017-04-17T05:45:02.863Z,4.73
2017-04-17T06:00:02.688Z,4.93
2017-04-17T06:15:02.902Z,5.07
2017-04-17T06:30:02.307Z,5.3
2017-04-17T06:45:02.401Z,5.37
2017-04-17T07:00:03.154Z,5.51
2017-04-17T07:15:02.582Z,5.63
2017-04-17T07:30:03.334Z,5.84
2017-04-17T07:45:03.007Z,5.54
2017-04-17T08:00:02.925Z,5.36
2017-04-17T08:15:02.960Z,5.97
2017-04-17T08:30:02.738Z,5.89
2017-04-17T08:45:03.124Z,6.46
2017-04-17T09:00:02.244Z,7.08
2017-04-17T09:15:03.127Z,8.22
2017-04-17T09:30:02.910Z,10.09
2017-04-17T09:45:02.931Z,10.97
2017-04-17T10:00:02.553Z,11.68
2017-04-17T10:15:02.489Z,9.76
2017-04-17T10:30:02.895Z,10.15
2017-04-17T10:45:02.597Z,11.25
2017-04-17T11:00:02.937Z,10.11
2017-04-17T11:15:03.187Z,8.09
2017-04-17T11:30:03.171Z,7.24
2017-04-17T11:45:02.470Z,8.74
2017-04-17T12:00:02.665Z,9.26
2017-04-17T12:15:03.080Z,9.35
2017-04-17T12:30:02.840Z,9.6
2017-04-17T12:45:03.297Z,8.91
2017-04-17T13:00:03.033Z,9.86
2017-04-17T13:15:02.999Z,9.14
2017-04-17T13:30:02.323Z,7.72
2017-04-17T13:45:02.957Z,7.64
2017-04-17T14:00:02.268Z,7.4
2017-04-17T14:15:02.447Z,7.32
2017-04-17T14:30:03.154Z,7.9
2017-04-17T14:45:02.619Z,6.9
2017-04-17T15:00:02.901Z,7.22
2017-04-17T15:15:02.948Z,7.48
2017-04-17T15:30:02.414Z,8.21
2017-04-17T15:45:03.243Z,7.64
2017-04-17T16:00:02.263Z,6.99
2017-04-17T16:15:03.228Z,5.96
2017-04-17T16:30:02.673Z,6.65
2017-04-17T16:45:02.539Z,6.9
2017-04-17T17:00:03.130Z,6.27
2017-04-17T17:15:02.815Z,5.69
2017-04-17T17:30:02.503Z,5.17
2017-04-17T17:45:02.805Z,4.8
2017-04-17T18:00:02.545Z,4.53
2017-04-17T18:15:02.929Z,4.53
2017-04-17T18:30:02.422Z,4.53
2017-04-17T18:45:03.259Z,4.57
2017-04-17T19:00:02.521Z,4.57
2017-04-17T19:15:02.478Z,4.52
2017-04-17T19:30:02.606Z,4.58
2017-04-17T19:45:02.470Z,4.42
2017-04-17T20:00:02.559Z,4.34
2017-04-17T20:15:02.578Z,4.23
2017-04-17T20:30:02.368Z,4.06
2017-04-17T20:45:02.825Z,3.89
2017-04-17T21:00:02.891Z,3.72
2017-04-17T21:15:03.076Z,3.65
2017-04-17T21:30:02.846Z,3.55
2017-04-17T21:45:02.918Z,3.43
2017-04-17T22:00:02.876Z,3.34
2017-04-17T22:15:02.312Z,3.19
2017-04-17T22:30:02.542Z,3.26
2017-04-17T22:45:02.555Z,3.32
2017-04-17T23:00:02.400Z,3.24
2017-04-17T23:15:02.447Z,3.09
2017-04-17T23:30:02.698Z,3.04
2017-04-17T23:45:02.934Z,3.02
